Time;durP1;ratioP1;P1;durP2;ratioP2;P2;SDS_P1;SDS_P2;PMS_P1;PMS_P2;Temp;Humidity;BMP_temperature;BMP_pressure;BME280_temperature;BME280_humidity;BME280_pressure;Samples;Min_cycle;Max_cycle;Signal;HPM_P1;HPM_P2
2022/06/07 00:00:09;;;;;;;19.10;11.50;;;;;;;;;;5126608;27;20061;-73
2022/06/07 00:02:35;;;;;;;21.02;12.00;;;;;;;;;;5153227;27;20069;-73
2022/06/07 00:05:03;;;;;;;25.13;12.73;;;;;;;;;;5148563;27;20059;-73
2022/06/07 00:07:29;;;;;;;24.95;12.65;;;;;;;;;;5145856;27;20122;-73
2022/06/07 00:09:56;;;;;;;22.60;12.00;;;;;;;;;;5145142;27;20092;-72
2022/06/07 00:12:22;;;;;;;24.77;12.80;;;;;;;;;;5144447;27;20592;-72
2022/06/07 00:14:49;;;;;;;20.98;12.18;;;;;;;;;;5124824;27;20177;-73
2022/06/07 00:17:16;;;;;;;24.55;13.35;;;;;;;;;;5126375;27;20138;-73
2022/06/07 00:19:42;;;;;;;24.67;13.90;;;;;;;;;;5155275;27;20511;-73
2022/06/07 00:22:09;;;;;;;23.95;12.73;;;;;;;;;;5152165;27;20061;-73
2022/06/07 00:24:36;;;;;;;23.10;13.18;;;;;;;;;;5153824;27;20051;-73
2022/06/07 00:27:03;;;;;;;25.35;13.40;;;;;;;;;;5153084;27;20862;-73
2022/06/07 00:29:30;;;;;;;23.98;13.70;;;;;;;;;;5153982;27;20134;-74
2022/06/07 00:31:56;;;;;;;25.23;12.93;;;;;;;;;;5125415;27;20052;-73
2022/06/07 00:34:23;;;;;;;24.45;13.35;;;;;;;;;;5148587;27;20058;-73
2022/06/07 00:36:50;;;;;;;26.48;13.35;;;;;;;;;;5157902;27;20146;-73
2022/06/07 00:39:16;;;;;;;28.10;13.48;;;;;;;;;;5147628;27;20074;-73
2022/06/07 00:41:43;;;;;;;24.45;12.90;;;;;;;;;;5151597;27;20051;-73
2022/06/07 00:44:21;;;;;;;28.58;13.60;;;;;;;;;;5144979;27;20434;-73
2022/06/07 00:46:48;;;;;;;24.83;13.18;;;;;;;;;;5156555;27;20077;-72
2022/06/07 00:49:15;;;;;;;27.60;14.45;;;;;;;;;;5152980;27;20133;-73
2022/06/07 00:51:44;;;;;;;27.50;13.05;;;;;;;;;;5140705;27;20053;-73
2022/06/07 00:54:17;;;;;;;26.98;13.98;;;;;;;;;;5144166;27;20757;-73
2022/06/07 00:56:43;;;;;;;25.00;13.55;;;;;;;;;;5144640;27;20055;-73
2022/06/07 00:59:10;;;;;;;28.08;14.20;;;;;;;;;;5143975;27;20051;-73
2022/06/07 01:01:36;;;;;;;27.50;13.75;;;;;;;;;;5152999;27;20090;-73
2022/06/07 01:04:03;;;;;;;26.77;13.27;;;;;;;;;;5148425;27;20066;-73
2022/06/07 01:11:59;;;;;;;30.05;14.48;;;;;;;;;;5149117;27;22716;-75
2022/06/07 01:14:25;;;;;;;28.58;14.82;;;;;;;;;;5133572;27;20073;-73
2022/06/07 01:16:52;;;;;;;29.52;14.73;;;;;;;;;;5150216;27;20054;-72
2022/06/07 01:19:18;;;;;;;29.90;14.85;;;;;;;;;;5144143;27;20051;-72
2022/06/07 01:21:46;;;;;;;28.13;14.52;;;;;;;;;;5125977;27;20051;-72
2022/06/07 01:24:13;;;;;;;31.70;15.05;;;;;;;;;;5152190;27;20197;-72
2022/06/07 01:26:40;;;;;;;29.98;15.20;;;;;;;;;;5148009;27;20071;-72
2022/06/07 01:29:08;;;;;;;29.65;15.50;;;;;;;;;;5153465;27;20901;-72
2022/06/07 01:31:34;;;;;;;27.75;14.38;;;;;;;;;;5158301;27;20057;-73
2022/06/07 01:34:01;;;;;;;30.63;13.95;;;;;;;;;;5152921;27;20054;-72
2022/06/07 01:36:28;;;;;;;32.75;14.93;;;;;;;;;;5147181;27;20176;-72
2022/06/07 01:41:54;;;;;;;29.70;14.90;;;;;;;;;;5148617;27;20046;-72
2022/06/07 01:44:21;;;;;;;29.00;14.35;;;;;;;;;;5144145;27;20693;-72
2022/06/07 01:46:47;;;;;;;32.83;15.00;;;;;;;;;;5148084;27;20059;-72
2022/06/07 01:49:14;;;;;;;30.30;14.80;;;;;;;;;;5156553;27;20055;-72
2022/06/07 01:51:40;;;;;;;30.13;14.82;;;;;;;;;;5132734;27;20073;-72
2022/06/07 01:54:07;;;;;;;33.08;14.93;;;;;;;;;;5151466;27;20528;-72
2022/06/07 01:56:34;;;;;;;30.58;15.30;;;;;;;;;;5157158;27;21722;-73
2022/06/07 01:59:01;;;;;;;33.45;15.98;;;;;;;;;;5147084;27;20059;-73
2022/06/07 02:01:27;;;;;;;31.60;15.68;;;;;;;;;;5162036;27;20145;-72
2022/06/07 02:03:53;;;;;;;31.77;14.23;;;;;;;;;;5153635;27;20054;-72
2022/06/07 02:06:20;;;;;;;30.17;14.32;;;;;;;;;;5148552;27;20057;-72
2022/06/07 02:08:46;;;;;;;29.88;14.77;;;;;;;;;;5132942;27;20496;-73
2022/06/07 02:11:14;;;;;;;29.45;15.05;;;;;;;;;;5167545;27;20133;-73
2022/06/07 02:13:41;;;;;;;29.70;15.43;;;;;;;;;;5158431;27;20146;-72
2022/06/07 02:16:08;;;;;;;30.80;15.23;;;;;;;;;;5159328;27;20051;-72
2022/06/07 02:18:35;;;;;;;30.92;14.73;;;;;;;;;;5165349;27;20054;-72
2022/06/07 02:21:02;;;;;;;29.80;14.98;;;;;;;;;;5159114;27;20054;-73
2022/06/07 02:23:29;;;;;;;30.77;14.95;;;;;;;;;;5148560;27;20055;-73
2022/06/07 02:25:57;;;;;;;31.77;15.68;;;;;;;;;;5158316;27;20550;-72
2022/06/07 02:28:25;;;;;;;32.85;15.63;;;;;;;;;;5154875;27;20133;-72
2022/06/07 02:30:52;;;;;;;30.42;14.90;;;;;;;;;;5155918;27;20059;-73
2022/06/07 02:33:19;;;;;;;34.00;15.75;;;;;;;;;;5154967;27;20167;-72
2022/06/07 02:35:45;;;;;;;33.83;15.82;;;;;;;;;;5139109;27;20055;-72
2022/06/07 02:38:12;;;;;;;30.92;15.70;;;;;;;;;;5161050;27;20139;-73
2022/06/07 02:40:40;;;;;;;28.13;14.60;;;;;;;;;;5132063;27;20043;-72
2022/06/07 02:43:06;;;;;;;29.65;15.77;;;;;;;;;;5159365;27;20047;-72
2022/06/07 02:45:33;;;;;;;32.00;15.55;;;;;;;;;;5149413;27;20131;-72
2022/06/07 02:48:00;;;;;;;31.83;16.30;;;;;;;;;;5164207;27;20405;-73
2022/06/07 02:50:27;;;;;;;30.75;15.27;;;;;;;;;;5161375;27;20130;-72
2022/06/07 02:52:53;;;;;;;31.92;15.88;;;;;;;;;;5156703;27;20087;-72
2022/06/07 02:55:19;;;;;;;31.13;15.95;;;;;;;;;;5155155;27;20130;-72
2022/06/07 02:57:46;;;;;;;32.97;16.38;;;;;;;;;;5163469;27;20489;-72
2022/06/07 03:00:14;;;;;;;33.03;15.35;;;;;;;;;;5159427;27;20131;-72
2022/06/07 03:02:40;;;;;;;30.60;15.48;;;;;;;;;;5157930;27;20792;-72
2022/06/07 03:05:07;;;;;;;33.65;15.70;;;;;;;;;;5152881;27;20055;-72
2022/06/07 03:07:33;;;;;;;31.55;16.13;;;;;;;;;;5158029;27;20061;-72
2022/06/07 03:10:00;;;;;;;32.83;16.30;;;;;;;;;;5157145;27;20107;-72
2022/06/07 03:12:26;;;;;;;30.05;15.50;;;;;;;;;;5162704;27;20043;-72
2022/06/07 03:14:52;;;;;;;31.45;15.40;;;;;;;;;;5148548;27;20055;-71
2022/06/07 03:17:19;;;;;;;32.30;15.73;;;;;;;;;;5162993;27;20054;-72
2022/06/07 03:19:45;;;;;;;31.30;15.63;;;;;;;;;;5163835;27;20541;-72
2022/06/07 03:22:14;;;;;;;32.65;15.77;;;;;;;;;;5148607;27;20148;-71
2022/06/07 03:24:41;;;;;;;33.35;16.67;;;;;;;;;;5156624;27;20047;-71
2022/06/07 03:27:10;;;;;;;31.60;15.98;;;;;;;;;;5156782;27;20046;-72
2022/06/07 03:29:37;;;;;;;33.30;16.23;;;;;;;;;;5167005;27;20660;-71
2022/06/07 03:32:05;;;;;;;35.33;16.48;;;;;;;;;;5161822;27;20067;-72
2022/06/07 03:34:32;;;;;;;31.05;15.27;;;;;;;;;;5136998;27;20059;-72
2022/06/07 03:36:59;;;;;;;34.10;16.75;;;;;;;;;;5145180;27;20061;-72
2022/06/07 03:39:25;;;;;;;28.67;15.77;;;;;;;;;;5154829;27;20538;-72
2022/06/07 03:41:51;;;;;;;37.33;16.27;;;;;;;;;;5159919;27;20520;-72
2022/06/07 03:44:18;;;;;;;32.72;16.10;;;;;;;;;;5154062;27;20047;-72
2022/06/07 03:46:45;;;;;;;32.28;16.10;;;;;;;;;;5134753;27;20047;-72
2022/06/07 03:49:11;;;;;;;31.55;16.08;;;;;;;;;;5142979;27;20046;-72
2022/06/07 03:51:38;;;;;;;31.58;16.20;;;;;;;;;;5137214;27;20055;-72
2022/06/07 03:54:05;;;;;;;31.63;16.98;;;;;;;;;;5164673;27;20057;-72
2022/06/07 03:56:32;;;;;;;32.38;16.90;;;;;;;;;;5163096;27;20057;-72
2022/06/07 03:58:59;;;;;;;35.72;16.35;;;;;;;;;;5164557;27;20081;-72
2022/06/07 04:01:26;;;;;;;29.67;15.75;;;;;;;;;;5156946;27;20055;-72
2022/06/07 04:03:54;;;;;;;34.30;16.65;;;;;;;;;;5154561;27;20061;-72
2022/06/07 04:06:23;;;;;;;30.92;15.15;;;;;;;;;;5135778;27;20046;-72
2022/06/07 04:08:50;;;;;;;29.33;15.60;;;;;;;;;;5157604;27;20056;-74
2022/06/07 04:11:18;;;;;;;29.67;15.23;;;;;;;;;;5154757;27;20399;-72
2022/06/07 04:13:44;;;;;;;29.45;15.55;;;;;;;;;;5156271;27;21002;-73
2022/06/07 04:16:13;;;;;;;29.50;14.77;;;;;;;;;;5149099;27;20047;-72
2022/06/07 04:18:40;;;;;;;28.13;14.95;;;;;;;;;;5163576;27;20055;-72
2022/06/07 04:21:06;;;;;;;26.58;14.98;;;;;;;;;;5140267;27;20061;-72
2022/06/07 04:23:33;;;;;;;24.30;14.02;;;;;;;;;;5150529;27;20174;-73
2022/06/07 04:26:10;;;;;;;30.48;15.80;;;;;;;;;;5160409;27;20062;-72
2022/06/07 04:28:37;;;;;;;28.65;13.60;;;;;;;;;;5157244;27;20051;-73
2022/06/07 04:31:08;;;;;;;24.08;13.52;;;;;;;;;;5150618;27;20513;-73
2022/06/07 04:33:35;;;;;;;21.83;13.27;;;;;;;;;;5155455;27;20051;-73
2022/06/07 04:36:02;;;;;;;24.15;13.45;;;;;;;;;;5146052;27;20055;-73
2022/06/07 04:38:29;;;;;;;23.52;13.35;;;;;;;;;;5156593;27;20851;-72
2022/06/07 04:40:56;;;;;;;26.40;13.50;;;;;;;;;;5160925;27;20146;-73
2022/06/07 04:43:22;;;;;;;27.08;14.73;;;;;;;;;;5160483;27;20057;-72
2022/06/07 04:45:48;;;;;;;26.30;14.40;;;;;;;;;;5151468;27;21899;-73
2022/06/07 04:48:16;;;;;;;26.30;14.15;;;;;;;;;;5151406;27;20051;-71
2022/06/07 04:50:42;;;;;;;26.88;14.07;;;;;;;;;;5147925;27;20058;-73
2022/06/07 04:53:08;;;;;;;28.20;14.50;;;;;;;;;;5158327;27;20072;-72
2022/06/07 04:55:37;;;;;;;27.73;14.73;;;;;;;;;;5125481;27;20081;-72
2022/06/07 04:58:03;;;;;;;26.92;13.82;;;;;;;;;;5153961;27;20084;-72
2022/06/07 05:00:30;;;;;;;23.98;13.15;;;;;;;;;;5160005;27;20051;-73
2022/06/07 05:02:56;;;;;;;26.10;14.52;;;;;;;;;;5135711;27;20051;-74
2022/06/07 05:05:22;;;;;;;24.20;14.15;;;;;;;;;;5143862;27;20154;-73
2022/06/07 05:07:49;;;;;;;28.27;14.15;;;;;;;;;;5160776;27;20086;-73
2022/06/07 05:10:16;;;;;;;23.80;12.93;;;;;;;;;;5152749;27;20137;-73
2022/06/07 05:12:43;;;;;;;22.77;14.18;;;;;;;;;;5159875;27;20123;-73
2022/06/07 05:15:10;;;;;;;23.73;13.70;;;;;;;;;;5125535;27;20079;-73
2022/06/07 05:17:36;;;;;;;28.88;14.45;;;;;;;;;;5126072;27;20047;-73
2022/06/07 05:20:03;;;;;;;24.33;15.00;;;;;;;;;;5151846;27;20051;-73
2022/06/07 05:22:29;;;;;;;28.23;14.63;;;;;;;;;;5144151;27;20517;-73
2022/06/07 05:24:55;;;;;;;24.13;13.88;;;;;;;;;;5159509;27;20120;-73
2022/06/07 05:27:23;;;;;;;30.10;14.57;;;;;;;;;;5157234;27;20050;-73
2022/06/07 05:29:52;;;;;;;25.67;14.25;;;;;;;;;;5166638;27;21214;-73
2022/06/07 05:32:18;;;;;;;25.55;14.38;;;;;;;;;;5161800;27;20081;-73
2022/06/07 05:34:45;;;;;;;25.83;13.68;;;;;;;;;;5161495;27;20915;-73
2022/06/07 05:37:16;;;;;;;27.60;13.93;;;;;;;;;;5158284;27;20050;-73
2022/06/07 05:39:42;;;;;;;26.98;13.88;;;;;;;;;;5131465;27;20617;-73
2022/06/07 05:42:10;;;;;;;24.40;13.93;;;;;;;;;;5133873;27;20582;-73
2022/06/07 05:44:37;;;;;;;25.52;13.52;;;;;;;;;;5151488;27;20051;-71
2022/06/07 05:47:03;;;;;;;22.70;13.38;;;;;;;;;;5144765;27;20151;-74
2022/06/07 05:49:30;;;;;;;22.75;12.70;;;;;;;;;;5147714;27;20230;-74
2022/06/07 05:51:56;;;;;;;23.83;13.20;;;;;;;;;;5157118;27;20125;-73
2022/06/07 05:54:23;;;;;;;21.40;12.38;;;;;;;;;;5150147;27;20478;-74
2022/06/07 05:56:50;;;;;;;23.50;12.90;;;;;;;;;;5126703;27;20598;-74
2022/06/07 05:59:16;;;;;;;22.58;12.35;;;;;;;;;;5158195;27;20046;-73
2022/06/07 06:01:42;;;;;;;19.30;11.63;;;;;;;;;;5163799;27;20055;-73
2022/06/07 06:04:10;;;;;;;22.42;13.25;;;;;;;;;;5163637;27;20043;-72
2022/06/07 06:06:36;;;;;;;19.45;11.20;;;;;;;;;;5167195;27;20141;-73
2022/06/07 06:11:48;;;;;;;18.17;11.23;;;;;;;;;;5148251;27;20051;-72
2022/06/07 06:14:15;;;;;;;19.67;11.23;;;;;;;;;;5148396;27;20053;-73
2022/06/07 06:16:41;;;;;;;21.05;11.65;;;;;;;;;;5147022;27;20059;-73
2022/06/07 06:19:07;;;;;;;18.13;10.23;;;;;;;;;;5168684;27;20065;-72
2022/06/07 06:21:38;;;;;;;20.33;11.73;;;;;;;;;;5149133;27;20523;-72
2022/06/07 06:24:04;;;;;;;18.27;11.00;;;;;;;;;;5168567;27;20043;-73
2022/06/07 06:26:31;;;;;;;18.15;10.35;;;;;;;;;;5157043;27;20141;-73
2022/06/07 06:28:57;;;;;;;17.48;10.43;;;;;;;;;;5166729;27;20050;-73
2022/06/07 06:31:24;;;;;;;17.08;10.23;;;;;;;;;;5149649;27;20051;-73
2022/06/07 06:33:52;;;;;;;17.40;10.57;;;;;;;;;;5147641;27;20200;-72
2022/06/07 06:36:20;;;;;;;18.27;10.40;;;;;;;;;;5149147;27;20050;-71
2022/06/07 06:38:47;;;;;;;20.25;9.45;;;;;;;;;;5155181;27;20588;-73
2022/06/07 06:41:15;;;;;;;14.52;8.80;;;;;;;;;;5145220;27;20580;-72
2022/06/07 06:43:41;;;;;;;15.93;8.98;;;;;;;;;;5146542;27;20126;-73
2022/06/07 06:46:10;;;;;;;13.85;9.10;;;;;;;;;;5147331;27;20100;-73
2022/06/07 06:48:37;;;;;;;13.98;8.63;;;;;;;;;;5153526;27;20058;-73
2022/06/07 06:51:05;;;;;;;14.05;8.50;;;;;;;;;;5153891;27;20055;-72
2022/06/07 06:53:32;;;;;;;12.27;7.50;;;;;;;;;;5154769;27;20425;-72
2022/06/07 06:55:58;;;;;;;12.93;7.45;;;;;;;;;;5143102;27;20043;-73
2022/06/07 06:58:25;;;;;;;14.98;7.88;;;;;;;;;;5147864;27;20047;-73
2022/06/07 07:01:06;;;;;;;13.70;7.68;;;;;;;;;;5147345;27;20050;-73
2022/06/07 07:03:33;;;;;;;10.38;7.05;;;;;;;;;;5149942;27;20517;-73
2022/06/07 07:06:01;;;;;;;11.65;7.18;;;;;;;;;;5147861;27;20058;-72
2022/06/07 07:08:27;;;;;;;15.50;7.00;;;;;;;;;;5155493;27;20055;-73
2022/06/07 07:11:11;;;;;;;11.90;7.47;;;;;;;;;;5144444;27;20047;-72
2022/06/07 07:13:37;;;;;;;12.65;6.88;;;;;;;;;;5148643;27;20051;-72
2022/06/07 07:16:14;;;;;;;11.60;6.63;;;;;;;;;;5154809;27;20055;-73
2022/06/07 07:18:40;;;;;;;11.25;7.90;;;;;;;;;;5148016;27;20089;-73
2022/06/07 07:21:08;;;;;;;12.05;7.55;;;;;;;;;;5149711;27;20058;-73
2022/06/07 07:23:35;;;;;;;11.60;7.20;;;;;;;;;;5154278;27;20055;-73
2022/06/07 07:26:03;;;;;;;11.23;6.65;;;;;;;;;;5160206;27;23042;-73
2022/06/07 07:28:30;;;;;;;16.65;6.47;;;;;;;;;;5153643;27;20059;-73
2022/06/07 07:31:00;;;;;;;11.23;6.50;;;;;;;;;;5138480;27;20138;-73
2022/06/07 07:33:31;;;;;;;12.18;6.43;;;;;;;;;;5126085;27;20711;-73
2022/06/07 07:36:00;;;;;;;9.57;6.75;;;;;;;;;;5147493;27;20055;-73
2022/06/07 07:38:26;;;;;;;11.93;6.80;;;;;;;;;;5159874;27;20080;-73
2022/06/07 07:40:52;;;;;;;11.52;6.25;;;;;;;;;;5154914;27;20055;-73
2022/06/07 07:43:19;;;;;;;10.75;6.55;;;;;;;;;;5147853;27;20513;-73
2022/06/07 07:45:49;;;;;;;11.32;6.65;;;;;;;;;;5161416;27;20054;-73
2022/06/07 07:48:16;;;;;;;;;;;;;;;;;;5148409;27;20134;-73
2022/06/07 07:50:42;;;;;;;9.43;6.32;;;;;;;;;;5141848;27;47367;-73
2022/06/07 07:53:09;;;;;;;11.68;6.25;;;;;;;;;;5125630;27;20501;-73
2022/06/07 07:55:41;;;;;;;12.00;6.75;;;;;;;;;;5157634;27;20138;-73
2022/06/07 07:58:08;;;;;;;9.27;6.22;;;;;;;;;;5149790;27;20073;-73
2022/06/07 08:00:34;;;;;;;12.35;7.57;;;;;;;;;;5158586;27;21080;-73
2022/06/07 08:03:01;;;;;;;11.23;7.10;;;;;;;;;;5130819;27;21159;-73
2022/06/07 08:05:29;;;;;;;9.50;6.72;;;;;;;;;;5161998;27;20132;-73
2022/06/07 08:07:56;;;;;;;10.27;6.53;;;;;;;;;;5146945;27;20051;-73
2022/06/07 08:10:24;;;;;;;11.98;6.88;;;;;;;;;;5162533;27;20079;-74
2022/06/07 08:12:54;;;;;;;11.68;6.57;;;;;;;;;;5142685;27;20481;-74
2022/06/07 08:15:23;;;;;;;10.48;6.30;;;;;;;;;;5146240;27;20112;-73
2022/06/07 08:17:51;;;;;;;9.77;6.35;;;;;;;;;;5163979;27;20053;-74
2022/06/07 08:20:18;;;;;;;9.50;6.10;;;;;;;;;;5151582;27;23106;-73
2022/06/07 08:22:45;;;;;;;12.63;5.50;;;;;;;;;;5145503;27;20182;-74
2022/06/07 08:25:12;;;;;;;11.07;6.70;;;;;;;;;;5158396;27;20079;-74
2022/06/07 08:27:38;;;;;;;10.07;5.90;;;;;;;;;;5165060;27;20055;-74
2022/06/07 08:30:05;;;;;;;11.15;6.60;;;;;;;;;;5143406;27;20057;-73
2022/06/07 08:32:34;;;;;;;10.38;6.93;;;;;;;;;;5138074;27;20050;-74
2022/06/07 08:37:47;;;;;;;10.60;6.38;;;;;;;;;;5150119;27;20057;-73
2022/06/07 08:40:17;;;;;;;12.45;6.15;;;;;;;;;;5145603;27;20100;-74
2022/06/07 08:42:54;;;;;;;9.07;6.22;;;;;;;;;;5150329;27;20051;-74
2022/06/07 08:45:24;;;;;;;18.33;6.95;;;;;;;;;;5164913;27;20047;-74
2022/06/07 08:47:50;;;;;;;;;;;;;;;;;;5134890;27;20710;-74
2022/06/07 08:50:21;;;;;;;11.88;6.95;;;;;;;;;;5148148;27;44800;-74
2022/06/07 08:52:49;;;;;;;10.77;6.22;;;;;;;;;;5151515;27;20153;-74
2022/06/07 08:55:25;;;;;;;9.57;6.10;;;;;;;;;;5149392;27;20050;-74
2022/06/07 08:57:59;;;;;;;11.57;6.30;;;;;;;;;;5145325;27;20060;-74
2022/06/07 09:00:31;;;;;;;11.00;6.00;;;;;;;;;;5128218;27;20062;-74
2022/06/07 09:03:03;;;;;;;8.27;5.90;;;;;;;;;;5154183;27;20051;-75
2022/06/07 09:05:29;;;;;;;9.70;5.82;;;;;;;;;;5156373;27;20451;-74
2022/06/07 09:07:56;;;;;;;10.23;6.13;;;;;;;;;;5148928;27;20055;-74
2022/06/07 09:13:20;;;;;;;10.82;5.85;;;;;;;;;;5148041;27;20047;-74
2022/06/07 09:15:48;;;;;;;9.70;6.00;;;;;;;;;;5143759;27;20138;-74
2022/06/07 09:18:15;;;;;;;11.15;6.57;;;;;;;;;;5145152;27;20142;-74
2022/06/07 09:20:46;;;;;;;9.70;5.63;;;;;;;;;;5156183;27;20080;-74
2022/06/07 09:23:15;;;;;;;10.43;6.65;;;;;;;;;;5138438;27;20057;-74
2022/06/07 09:25:48;;;;;;;11.45;5.88;;;;;;;;;;5158191;27;20047;-74
2022/06/07 09:28:17;;;;;;;10.32;5.82;;;;;;;;;;5153056;27;20086;-73
2022/06/07 09:30:45;;;;;;;9.88;6.20;;;;;;;;;;5135468;27;20856;-73
2022/06/07 09:33:21;;;;;;;10.50;6.68;;;;;;;;;;5146067;27;20051;-78
2022/06/07 09:35:48;;;;;;;11.43;6.30;;;;;;;;;;5119166;27;20055;-75
2022/06/07 09:38:21;;;;;;;11.20;6.47;;;;;;;;;;5147025;27;20058;-74
2022/06/07 09:40:54;;;;;;;10.85;6.60;;;;;;;;;;5148536;27;20051;-74
2022/06/07 09:43:28;;;;;;;9.38;6.47;;;;;;;;;;5144955;27;20051;-74
2022/06/07 09:46:15;;;;;;;12.15;6.53;;;;;;;;;;5142308;27;20046;-75
2022/06/07 09:48:43;;;;;;;11.80;7.13;;;;;;;;;;5126494;27;20051;-75
2022/06/07 09:51:14;;;;;;;16.23;7.90;;;;;;;;;;5159535;27;20508;-75
2022/06/07 09:53:42;;;;;;;13.40;7.40;;;;;;;;;;5164809;27;20140;-74
2022/06/07 09:56:18;;;;;;;12.10;7.43;;;;;;;;;;5141297;27;20055;-75
2022/06/07 09:58:55;;;;;;;12.18;6.65;;;;;;;;;;5149820;27;20053;-74
2022/06/07 10:01:44;;;;;;;12.20;7.13;;;;;;;;;;5143748;27;20433;-75
2022/06/07 10:04:29;;;;;;;10.88;6.63;;;;;;;;;;5144625;27;20410;-75
2022/06/07 10:07:00;;;;;;;10.63;6.78;;;;;;;;;;5142546;27;20051;-75
2022/06/07 10:09:41;;;;;;;10.07;6.53;;;;;;;;;;5163856;27;20134;-75
2022/06/07 10:12:27;;;;;;;13.05;6.85;;;;;;;;;;5144284;27;20051;-73
2022/06/07 10:14:54;;;;;;;10.02;6.47;;;;;;;;;;5146644;27;20054;-74
2022/06/07 10:17:39;;;;;;;9.95;6.63;;;;;;;;;;5163229;27;20896;-74
2022/06/07 10:20:17;;;;;;;10.45;6.40;;;;;;;;;;5145603;27;20645;-74
2022/06/07 10:22:45;;;;;;;10.25;5.88;;;;;;;;;;5148694;27;20070;-74
2022/06/07 10:25:16;;;;;;;9.77;6.50;;;;;;;;;;5150473;27;20053;-74
2022/06/07 10:28:08;;;;;;;9.75;6.15;;;;;;;;;;5169493;27;20166;-75
2022/06/07 10:30:35;;;;;;;9.30;5.82;;;;;;;;;;5135752;27;20484;-75
2022/06/07 10:33:02;;;;;;;10.30;5.82;;;;;;;;;;5163025;27;20131;-74
2022/06/07 10:35:39;;;;;;;9.98;6.05;;;;;;;;;;5162580;27;20047;-74
2022/06/07 10:38:11;;;;;;;10.02;5.72;;;;;;;;;;5169337;27;20055;-75
2022/06/07 10:40:41;;;;;;;10.13;5.93;;;;;;;;;;5169778;27;20050;-74
2022/06/07 10:43:23;;;;;;;11.43;5.60;;;;;;;;;;5158856;27;20048;-74
2022/06/07 10:45:54;;;;;;;9.40;6.22;;;;;;;;;;5166076;27;20094;-74
2022/06/07 10:48:20;;;;;;;;;;;;;;;;;;5169178;27;20455;-74
2022/06/07 10:50:52;;;;;;;9.25;5.40;;;;;;;;;;5149709;27;43289;-75
2022/06/07 10:53:23;;;;;;;7.97;5.68;;;;;;;;;;5139972;27;20043;-74
2022/06/07 10:55:58;;;;;;;12.23;6.20;;;;;;;;;;5164773;27;20133;-75
2022/06/07 10:58:30;;;;;;;10.82;5.80;;;;;;;;;;5165683;27;20057;-75
2022/06/07 11:01:16;;;;;;;11.88;6.25;;;;;;;;;;5127258;27;20047;-75
2022/06/07 11:03:53;;;;;;;10.45;6.50;;;;;;;;;;5147533;27;20101;-74
2022/06/07 11:09:20;;;;;;;12.23;7.60;;;;;;;;;;5152331;27;20134;-74
2022/06/07 11:11:58;;;;;;;9.60;6.90;;;;;;;;;;5151726;27;20047;-74
2022/06/07 11:14:33;;;;;;;10.48;6.90;;;;;;;;;;5150380;27;20046;-74
2022/06/07 11:17:00;;;;;;;9.40;6.88;;;;;;;;;;5144645;27;20126;-74
2022/06/07 11:19:26;;;;;;;10.27;6.68;;;;;;;;;;5129580;27;20519;-75
2022/06/07 11:21:57;;;;;;;10.20;6.90;;;;;;;;;;5154533;27;20489;-74
2022/06/07 11:24:32;;;;;;;9.70;7.00;;;;;;;;;;5151462;27;20057;-74
2022/06/07 11:27:01;;;;;;;10.27;7.45;;;;;;;;;;5145108;27;20055;-75
2022/06/07 11:29:29;;;;;;;12.63;7.43;;;;;;;;;;5154857;27;20058;-75
2022/06/07 11:31:56;;;;;;;12.18;7.30;;;;;;;;;;5130244;27;20582;-75
2022/06/07 11:34:25;;;;;;;10.70;7.55;;;;;;;;;;5154229;27;20050;-74
2022/06/07 11:36:56;;;;;;;10.38;7.32;;;;;;;;;;5153395;27;20053;-75
2022/06/07 11:39:24;;;;;;;10.93;7.20;;;;;;;;;;5153058;27;20334;-75
2022/06/07 11:41:52;;;;;;;12.32;7.65;;;;;;;;;;5149088;27;20061;-75
2022/06/07 11:44:46;;;;;;;12.43;6.72;;;;;;;;;;5159200;27;20057;-75
2022/06/07 11:47:14;;;;;;;10.30;7.13;;;;;;;;;;5089774;27;20135;-75
2022/06/07 11:49:44;;;;;;;11.55;7.40;;;;;;;;;;5160561;27;20050;-75
2022/06/07 11:52:11;;;;;;;11.60;7.63;;;;;;;;;;5131035;27;20059;-75
2022/06/07 11:54:43;;;;;;;10.93;7.47;;;;;;;;;;5152589;27;20055;-74
2022/06/07 11:57:40;;;;;;;12.45;8.10;;;;;;;;;;5153339;27;20082;-75
2022/06/07 12:00:15;;;;;;;12.95;7.13;;;;;;;;;;5152592;27;20057;-75
2022/06/07 12:02:42;;;;;;;11.52;7.95;;;;;;;;;;5134483;27;20137;-75
2022/06/07 12:05:19;;;;;;;10.52;7.15;;;;;;;;;;5157374;27;20075;-74
2022/06/07 12:07:48;;;;;;;12.95;8.63;;;;;;;;;;5153134;27;20078;-75
2022/06/07 12:10:17;;;;;;;10.45;7.55;;;;;;;;;;5154112;27;20134;-75
2022/06/07 12:12:50;;;;;;;12.65;8.18;;;;;;;;;;5156351;27;20146;-75
2022/06/07 12:15:18;;;;;;;12.40;8.43;;;;;;;;;;5132756;27;20051;-75
2022/06/07 12:17:56;;;;;;;12.70;8.80;;;;;;;;;;5152009;27;20055;-75
2022/06/07 12:20:24;;;;;;;14.60;9.23;;;;;;;;;;5150835;27;20058;-75
2022/06/07 12:22:50;;;;;;;10.20;7.50;;;;;;;;;;5126459;27;20055;-75
2022/06/07 12:25:18;;;;;;;10.95;7.72;;;;;;;;;;5147385;27;20043;-75
2022/06/07 12:27:46;;;;;;;10.05;7.55;;;;;;;;;;5152123;27;20057;-75
2022/06/07 12:30:22;;;;;;;10.32;7.72;;;;;;;;;;5148838;27;20109;-75
2022/06/07 12:32:50;;;;;;;10.85;7.60;;;;;;;;;;5146680;27;20053;-75
2022/06/07 12:35:19;;;;;;;9.35;7.13;;;;;;;;;;5138721;27;20054;-75
2022/06/07 12:37:51;;;;;;;9.80;6.88;;;;;;;;;;5142755;27;20132;-75
2022/06/07 12:40:23;;;;;;;11.57;6.25;;;;;;;;;;5133864;27;20050;-75
2022/06/07 12:42:49;;;;;;;11.05;6.75;;;;;;;;;;5130216;27;20071;-75
2022/06/07 12:45:24;;;;;;;11.20;7.22;;;;;;;;;;5146081;27;20051;-75
2022/06/07 12:47:55;;;;;;;10.85;7.43;;;;;;;;;;5143918;27;20094;-75
2022/06/07 12:50:29;;;;;;;9.95;6.90;;;;;;;;;;5148336;27;20141;-75
2022/06/07 12:52:56;;;;;;;11.93;6.60;;;;;;;;;;5142886;27;20845;-75
2022/06/07 12:55:24;;;;;;;10.30;7.32;;;;;;;;;;5150046;27;20055;-75
2022/06/07 12:57:54;;;;;;;13.23;7.03;;;;;;;;;;5142816;27;20535;-75
2022/06/07 13:00:20;;;;;;;9.67;6.77;;;;;;;;;;5149811;27;20347;-75
2022/06/07 13:02:48;;;;;;;10.50;6.80;;;;;;;;;;5143280;27;20285;-75
2022/06/07 13:05:20;;;;;;;10.00;6.43;;;;;;;;;;5146846;27;20133;-75
2022/06/07 13:07:47;;;;;;;11.13;6.78;;;;;;;;;;5153401;27;20228;-75
2022/06/07 13:10:15;;;;;;;10.23;6.30;;;;;;;;;;5146570;27;20063;-75
2022/06/07 13:12:43;;;;;;;9.95;6.38;;;;;;;;;;5139092;27;20477;-75
2022/06/07 13:15:15;;;;;;;11.55;6.50;;;;;;;;;;5144923;27;20059;-75
2022/06/07 13:17:51;;;;;;;9.57;6.30;;;;;;;;;;5128543;27;20050;-75
2022/06/07 13:20:26;;;;;;;10.80;6.03;;;;;;;;;;5143389;27;20130;-75
2022/06/07 13:22:53;;;;;;;11.35;6.78;;;;;;;;;;5137624;27;20054;-75
2022/06/07 13:25:23;;;;;;;14.75;6.22;;;;;;;;;;5157496;27;20053;-75
2022/06/07 13:27:52;;;;;;;;;;;;;;;;;;5151306;27;20063;-76
2022/06/07 13:30:22;;;;;;;10.83;6.47;;;;;;;;;;5123481;27;47934;-75
2022/06/07 13:33:01;;;;;;;9.73;6.60;;;;;;;;;;5136844;27;20498;-75
2022/06/07 13:35:29;;;;;;;9.23;6.03;;;;;;;;;;5142356;27;20571;-76
2022/06/07 13:38:01;;;;;;;10.57;6.15;;;;;;;;;;5152677;27;20086;-75
2022/06/07 13:40:29;;;;;;;9.20;6.78;;;;;;;;;;5132434;27;20054;-75
2022/06/07 13:43:11;;;;;;;11.15;7.20;;;;;;;;;;5140874;27;20532;-75
2022/06/07 13:45:49;;;;;;;10.80;8.27;;;;;;;;;;5128501;27;20051;-75
2022/06/07 13:48:21;;;;;;;10.52;7.72;;;;;;;;;;5160109;27;20061;-75
2022/06/07 13:53:50;;;;;;;10.57;6.35;;;;;;;;;;5154502;27;20443;-75
2022/06/07 13:56:18;;;;;;;11.27;6.95;;;;;;;;;;5153192;27;20065;-76
2022/06/07 13:58:52;;;;;;;13.93;8.50;;;;;;;;;;5140276;27;20520;-76
2022/06/07 14:01:22;;;;;;;13.35;9.35;;;;;;;;;;5134459;27;20302;-75
2022/06/07 14:03:48;;;;;;;;;;;;;;;;;;5152764;27;20055;-76
2022/06/07 14:06:27;;;;;;;10.77;6.38;;;;;;;;;;5128558;27;48349;-75
2022/06/07 14:08:54;;;;;;;10.90;7.20;;;;;;;;;;5133456;27;20131;-75
2022/06/07 14:11:21;;;;;;;9.63;6.90;;;;;;;;;;5131465;27;20134;-76
2022/06/07 14:13:48;;;;;;;11.13;6.80;;;;;;;;;;5146411;27;20535;-76
2022/06/07 14:16:17;;;;;;;10.82;6.70;;;;;;;;;;5154730;27;20050;-75
2022/06/07 14:18:45;;;;;;;12.27;6.75;;;;;;;;;;5133452;27;20524;-77
2022/06/07 14:21:12;;;;;;;10.10;6.07;;;;;;;;;;5152691;27;20053;-77
2022/06/07 14:23:38;;;;;;;8.82;6.30;;;;;;;;;;5149706;27;20162;-77
2022/06/07 14:26:04;;;;;;;10.18;6.35;;;;;;;;;;5133973;27;20263;-77
2022/06/07 14:28:31;;;;;;;8.70;6.18;;;;;;;;;;5132207;27;20047;-77
2022/06/07 14:30:58;;;;;;;8.57;6.13;;;;;;;;;;5140939;27;20051;-77
2022/06/07 14:33:25;;;;;;;9.30;5.63;;;;;;;;;;5140035;27;20104;-77
2022/06/07 14:35:51;;;;;;;9.68;5.47;;;;;;;;;;5134788;27;20153;-77
2022/06/07 14:38:19;;;;;;;7.30;5.30;;;;;;;;;;5152270;27;20493;-77
2022/06/07 14:40:46;;;;;;;10.75;6.45;;;;;;;;;;5166686;27;20057;-77
2022/06/07 14:43:14;;;;;;;8.38;5.28;;;;;;;;;;5164767;27;20146;-77
2022/06/07 14:45:45;;;;;;;11.50;5.63;;;;;;;;;;5133611;27;20085;-77
2022/06/07 14:48:23;;;;;;;8.75;5.68;;;;;;;;;;5164652;27;20061;-78
2022/06/07 14:50:49;;;;;;;8.90;6.05;;;;;;;;;;5136852;27;20065;-77
2022/06/07 14:53:16;;;;;;;10.35;5.45;;;;;;;;;;5142350;27;20130;-77
2022/06/07 14:55:42;;;;;;;9.07;5.45;;;;;;;;;;5147777;27;20506;-77
2022/06/07 14:58:09;;;;;;;9.02;5.38;;;;;;;;;;5162004;27;20146;-76
2022/06/07 15:00:35;;;;;;;7.80;5.22;;;;;;;;;;5158960;27;20045;-79